createdAt,value
2023-04-14T00:15:13.352Z,11.11
2023-04-14T00:35:16.023Z,10.56
2023-04-14T00:55:18.635Z,10.28
2023-04-14T01:15:21.261Z,10.32
2023-04-14T01:35:23.850Z,10.56
2023-04-14T01:55:26.640Z,10.54
2023-04-14T02:15:30.585Z,10.49
2023-04-14T02:35:33.231Z,10.97
2023-04-14T02:55:35.854Z,11.41
2023-04-14T03:15:38.629Z,10.77
2023-04-14T03:35:41.270Z,11.05
2023-04-14T03:55:43.889Z,10.12
2023-04-14T04:15:46.614Z,10.37
2023-04-14T04:35:49.341Z,11.11
2023-04-14T04:55:51.990Z,11.31
2023-04-14T05:15:54.635Z,11.13
2023-04-14T05:35:57.313Z,12.21
2023-04-14T05:56:00.353Z,12.09
2023-04-14T06:16:03.097Z,11.71
2023-04-14T06:36:05.770Z,13.15
2023-04-14T06:56:08.437Z,13.56
2023-04-14T07:16:11.138Z,14.87
2023-04-14T07:36:14.065Z,14.92
2023-04-14T07:56:16.898Z,14.54
2023-04-14T08:16:19.759Z,15.67
2023-04-14T08:36:22.908Z,16.52
2023-04-14T08:56:25.567Z,16.94
2023-04-14T09:16:28.251Z,17.99
2023-04-14T09:36:30.971Z,19.09
2023-04-14T09:56:33.998Z,19.19
2023-04-14T10:16:37.193Z,18.89
2023-04-14T10:36:41.023Z,18.75
2023-04-14T10:56:43.696Z,19.43
2023-04-14T11:16:58.758Z,19.24
2023-04-14T11:37:05.489Z,19.12
2023-04-14T11:57:08.102Z,19.23
2023-04-14T12:17:10.807Z,20.02
2023-04-14T12:37:13.527Z,19.27
2023-04-14T12:57:16.210Z,19.29
2023-04-14T13:17:18.940Z,20.84
2023-04-14T13:37:23.440Z,19.88
2023-04-14T13:57:26.071Z,19.67
2023-04-14T14:17:28.903Z,18.54
2023-04-14T14:37:31.731Z,18.35
2023-04-14T14:57:34.296Z,18.45
2023-04-14T15:17:37.060Z,18.84
2023-04-14T15:37:39.745Z,18.85
2023-04-14T15:57:42.678Z,18.62
2023-04-14T16:17:45.469Z,18.31
2023-04-14T16:37:48.245Z,17.85
2023-04-14T16:57:50.918Z,17.81
2023-04-14T17:17:53.535Z,17.49
2023-04-14T17:37:56.283Z,17.30
2023-04-14T17:57:59.139Z,16.91
2023-04-14T18:18:01.843Z,16.68
2023-04-14T18:38:04.570Z,16.25
2023-04-14T18:58:13.592Z,15.81
2023-04-14T19:18:18.627Z,15.48
2023-04-14T19:38:21.625Z,14.85
2023-04-14T19:58:24.310Z,14.60
2023-04-14T20:18:29.394Z,14.40
2023-04-14T20:38:32.307Z,14.20
2023-04-14T20:58:35.323Z,14.08
2023-04-14T21:18:38.343Z,13.96
2023-04-14T21:38:41.108Z,14.02
2023-04-14T21:58:43.871Z,13.95
2023-04-14T22:18:47.172Z,13.67
2023-04-14T22:38:49.865Z,13.01
2023-04-14T22:58:52.534Z,13.09
2023-04-14T23:18:55.261Z,12.65
2023-04-14T23:38:57.893Z,13.11
2023-04-14T23:59:01.022Z,12.22
